Terminal Aerodrome Forecast
Issued by NWS Louisville, KY

Home | Current Version | Previous Version | Text Only | Print | Product List | Glossary On
Versions: 1 2 3 4 5 6 7 8 9 10 11 12 13 14
000
FTUS43 KLMK 021100
TAFSDF
TAF
KSDF 021120Z 0212/0318 13005KT P6SM SCT250
     FM021500 17008KT P6SM SCT050
     FM030800 19011KT 6SM -SHRA VCTS OVC040CB=

USA.gov is the U.S. government's official web portal to all federal, state and local government web resources and services.